Main page
METAR-TAF:

METAR-TAF

Airports :

George Best Belfast City Airport

Belfast City, Northern Ireland

latitude: 54-36N, longitude: 005-53W, elevation: 5 m

Current weather observation

The report was made 19 minutes ago, at 21:20 UTC
Wind 2 kt from variable directions
Temperature 7°C
Humidity 87%
Pressure 1027 hPa
Visibility 10 km or more

METAR: EGAC 172120Z AUTO VRB02KT 9999 NCD 07/05 Q1027

Time: 22:39 (21:39 UTC)

Forecast

The report was made 2 hours and 3 minutes ago, at 19:36 UTC
Forecast valid from 17 at 19 UTC to 17 at 21 UTC
Wind 8 kt from the West/Northwest
Visibility 10 km or more
Few clouds at a height of 4000 ft

TAF: EGAC 171936Z 1719/1721 30008KT 9999 FEW040

Weather observations and forecasts of more than 4000 airports (METAR and TAF reports).

The available stations are represented by yellow and red dots on the map.

Hover mouse over dot to see the name of the station.

Then click to see weather observations and forecasts.

To change the map : click on the green buttons with a black cross to zoom in, on the green button with a dash to zoom out, or on the green arrows for adjacent maps.


METAR-TAF: